Time;durP1;ratioP1;P1;durP2;ratioP2;P2;SDS_P1;SDS_P2;PMS_P1;PMS_P2;Temp;Humidity;BMP_temperature;BMP_pressure;BME280_temperature;BME280_humidity;BME280_pressure;Samples;Min_cycle;Max_cycle;Signal;HPM_P1;HPM_P2
2023/06/28 15:17:36;;;;;;;4.10;1.98;;;;;;;30.74;29.21;100869.84;5048339;28;20590;-55
2023/06/28 15:20:04;;;;;;;5.22;1.65;;;;;;;31.19;29.12;100864.34;5034733;28;20564;-56
2023/06/28 15:22:32;;;;;;;3.05;1.60;;;;;;;33.24;25.77;100870.28;5040332;28;20067;-54
2023/06/28 15:24:59;;;;;;;4.45;1.98;;;;;;;34.42;24.45;100878.50;5046351;28;20131;-49
2023/06/28 15:27:26;;;;;;;4.47;1.70;;;;;;;33.41;25.68;100866.84;5042095;28;20049;-53
2023/06/28 15:29:53;;;;;;;3.33;1.73;;;;;;;32.26;26.81;100875.97;5042590;28;20141;-51
2023/06/28 15:32:21;;;;;;;4.72;1.83;;;;;;;34.17;24.65;100876.03;5048562;28;20140;-49
2023/06/28 15:34:48;;;;;;;3.28;1.83;;;;;;;36.36;22.60;100877.13;5044849;28;20079;-50
2023/06/28 15:37:15;;;;;;;3.75;2.10;;;;;;;39.95;20.02;100876.03;5048052;28;20513;-51
2023/06/28 15:39:43;;;;;;;3.72;2.55;;;;;;;41.41;17.30;100877.44;5050008;28;20060;-56
2023/06/28 15:42:10;;;;;;;4.00;3.05;;;;;;;39.61;18.78;100875.78;5050330;28;20420;-52
2023/06/28 15:44:37;;;;;;;4.00;2.70;;;;;;;36.63;20.94;100868.97;5043724;28;20689;-54
2023/06/28 15:47:05;;;;;;;3.45;2.08;;;;;;;34.05;23.70;100867.88;5046310;28;20533;-53
2023/06/28 15:49:32;;;;;;;3.17;1.92;;;;;;;32.25;26.10;100856.06;5045620;28;20702;-52
2023/06/28 15:51:59;;;;;;;7.32;2.55;;;;;;;31.13;27.52;100863.34;5049051;28;20053;-53
2023/06/28 15:54:26;;;;;;;4.35;1.90;;;;;;;30.68;27.48;100857.94;5051579;28;20444;-53
2023/06/28 15:56:54;;;;;;;3.33;2.00;;;;;;;29.55;29.77;100841.13;5048417;28;20060;-52
2023/06/28 15:59:21;;;;;;;4.43;1.70;;;;;;;27.47;32.73;100846.91;5050821;28;20524;-53
2023/06/28 16:01:48;;;;;;;3.97;1.88;;;;;;;27.35;33.07;100851.16;5046529;28;20148;-55
2023/06/28 16:04:15;;;;;;;5.38;1.52;;;;;;;27.36;32.50;100850.09;5044610;28;20055;-51
2023/06/28 16:06:43;;;;;;;3.05;1.48;;;;;;;26.83;33.95;100847.69;5044960;28;20063;-52
2023/06/28 16:09:10;;;;;;;7.00;1.75;;;;;;;26.32;34.85;100847.69;5049943;28;20048;-53
2023/06/28 16:11:37;;;;;;;8.68;2.33;;;;;;;26.19;35.38;100845.63;5046290;28;20061;-52
2023/06/28 16:14:04;;;;;;;3.97;1.98;;;;;;;26.25;35.33;100842.22;5047668;28;20150;-49
2023/06/28 16:16:31;;;;;;;6.10;1.90;;;;;;;28.18;34.04;100847.56;5040337;28;20155;-53
2023/06/28 16:18:59;;;;;;;3.92;1.90;;;;;;;29.81;29.86;100850.25;5043363;28;20708;-56
2023/06/28 16:21:26;;;;;;;5.07;1.63;;;;;;;29.40;29.89;100845.88;5047831;28;20049;-51
2023/06/28 16:23:54;;;;;;;4.10;1.63;;;;;;;28.99;31.66;100846.88;5048099;28;20059;-51
2023/06/28 16:26:21;;;;;;;4.15;1.95;;;;;;;29.22;30.82;100847.31;5049818;28;20184;-56
2023/06/28 16:28:48;;;;;;;5.57;1.85;;;;;;;28.98;30.95;100834.38;5044368;28;20136;-51
2023/06/28 16:31:17;;;;;;;2.92;1.65;;;;;;;30.25;29.91;100847.66;5040030;28;20049;-58
2023/06/28 16:33:44;;;;;;;8.65;1.98;;;;;;;32.31;26.55;100848.88;5042678;28;20057;-56
2023/06/28 16:36:11;;;;;;;4.00;2.00;;;;;;;34.82;23.55;100848.41;5044158;28;20109;-56
2023/06/28 16:38:39;;;;;;;4.57;2.10;;;;;;;34.34;23.32;100852.34;5051107;28;20076;-52
2023/06/28 16:41:06;;;;;;;4.05;2.10;;;;;;;32.36;25.79;100862.63;5051283;28;20140;-53
2023/06/28 16:43:33;;;;;;;4.35;1.88;;;;;;;30.71;27.92;100853.94;5044616;28;20150;-51
2023/06/28 16:46:01;;;;;;;3.42;1.95;;;;;;;29.27;30.23;100852.97;5043239;28;20052;-52
2023/06/28 16:48:28;;;;;;;6.47;2.10;;;;;;;28.04;31.47;100848.53;5048059;28;20063;-53
2023/06/28 16:50:55;;;;;;;3.85;2.13;;;;;;;27.45;32.26;100857.03;5041771;28;20045;-51
2023/06/28 16:53:22;;;;;;;4.80;2.15;;;;;;;26.95;32.88;100851.56;5038025;28;20052;-58
2023/06/28 16:55:50;;;;;;;3.22;1.58;;;;;;;26.77;33.68;100846.59;5035523;28;20064;-51
2023/06/28 16:58:17;;;;;;;6.72;2.30;;;;;;;26.43;34.29;100849.94;5030852;28;20055;-56
2023/06/28 17:00:45;;;;;;;4.93;1.40;;;;;;;26.09;35.05;100849.66;5043943;28;20428;-53
2023/06/28 17:03:16;;;;;;;5.03;1.73;;;;;;;25.74;35.67;100843.91;5042693;28;20072;-57
2023/06/28 17:05:44;;;;;;;5.28;2.30;;;;;;;25.35;36.30;100846.81;4999833;28;20122;-51
2023/06/28 17:08:14;;;;;;;5.55;1.80;;;;;;;25.35;36.64;100854.88;5044306;28;20057;-55
2023/06/28 17:10:44;;;;;;;4.85;1.80;;;;;;;25.14;37.03;100852.88;5034382;28;20057;-54
2023/06/28 17:13:12;;;;;;;3.42;1.52;;;;;;;24.72;37.41;100851.41;5051637;28;20053;-57
2023/06/28 17:15:39;;;;;;;8.77;2.00;;;;;;;24.76;38.18;100850.06;5049212;28;20195;-56
2023/06/28 17:18:06;;;;;;;4.25;1.60;;;;;;;24.67;38.30;100846.56;5050395;28;20053;-58
2023/06/28 17:20:33;;;;;;;5.85;1.40;;;;;;;24.52;38.60;100858.28;5046230;28;20083;-53
2023/06/28 17:23:00;;;;;;;8.88;1.85;;;;;;;24.38;39.16;100855.31;5042829;28;20151;-54
2023/06/28 17:25:31;;;;;;;5.57;1.60;;;;;;;24.44;39.25;100859.97;5026404;28;20055;-57
2023/06/28 17:27:59;;;;;;;5.40;1.80;;;;;;;24.53;38.85;100862.63;5038068;28;20535;-55
2023/06/28 17:30:29;;;;;;;10.68;1.80;;;;;;;24.35;38.81;100868.22;5034934;28;20301;-51
2023/06/28 17:32:56;;;;;;;3.72;1.70;;;;;;;24.38;38.91;100874.13;5040778;28;20052;-52
2023/06/28 17:35:24;;;;;;;4.63;2.28;;;;;;;24.14;39.77;100866.97;5022511;28;20057;-51
2023/06/28 17:37:51;;;;;;;3.45;1.65;;;;;;;24.04;39.82;100868.16;5037105;28;20057;-53
2023/06/28 17:40:18;;;;;;;5.40;1.90;;;;;;;23.99;40.19;100868.69;5026489;28;20136;-51
2023/06/28 17:42:45;;;;;;;5.35;1.90;;;;;;;23.99;40.12;100864.13;5044312;28;20043;-54
2023/06/28 17:45:13;;;;;;;2.88;1.50;;;;;;;23.95;40.65;100873.56;5042055;28;20136;-55
2023/06/28 17:47:41;;;;;;;3.55;1.70;;;;;;;23.83;40.11;100864.19;5040429;28;20160;-53
2023/06/28 17:50:10;;;;;;;3.88;1.52;;;;;;;23.78;40.32;100865.72;5038708;28;20151;-52
2023/06/28 17:52:38;;;;;;;4.85;2.00;;;;;;;23.72;40.25;100867.22;5043404;28;20049;-53
2023/06/28 17:55:05;;;;;;;5.88;1.60;;;;;;;23.63;40.41;100866.34;5045962;28;20048;-55
2023/06/28 17:57:32;;;;;;;5.20;1.77;;;;;;;23.44;41.39;100867.53;5042417;28;20440;-57
2023/06/28 18:00:00;;;;;;;6.70;2.10;;;;;;;23.34;41.83;100876.78;5040627;28;20681;-57
2023/06/28 18:02:28;;;;;;;2.67;1.23;;;;;;;23.31;41.73;100879.78;5043717;28;20571;-54
2023/06/28 18:04:55;;;;;;;9.30;1.52;;;;;;;23.15;41.87;100867.22;5043073;28;20045;-54
2023/06/28 18:07:23;;;;;;;4.22;1.75;;;;;;;22.95;42.14;100862.13;5041135;28;20153;-55
2023/06/28 18:09:50;;;;;;;3.45;1.65;;;;;;;22.81;42.61;100867.28;5043770;28;20045;-55
2023/06/28 18:12:18;;;;;;;4.15;1.73;;;;;;;22.80;42.92;100868.28;5014410;28;20067;-55
2023/06/28 18:14:45;;;;;;;7.35;1.83;;;;;;;22.75;42.94;100866.94;5041114;28;20671;-57
2023/06/28 18:17:12;;;;;;;6.80;2.20;;;;;;;22.70;43.45;100877.31;5047782;28;20135;-57
2023/06/28 18:19:42;;;;;;;6.43;1.88;;;;;;;22.63;43.31;100872.75;5044008;28;20052;-55
2023/06/28 18:22:09;;;;;;;5.95;2.22;;;;;;;22.53;43.52;100870.22;5045933;28;20268;-58
2023/06/28 18:24:36;;;;;;;7.35;2.10;;;;;;;22.44;43.87;100873.88;5046843;28;20156;-54
2023/06/28 18:27:04;;;;;;;3.88;1.70;;;;;;;22.40;43.82;100873.34;5047183;28;20045;-54
2023/06/28 18:29:31;;;;;;;3.78;2.10;;;;;;;22.34;44.11;100868.63;5045590;28;20660;-58
2023/06/28 18:31:58;;;;;;;15.60;2.38;;;;;;;22.26;44.53;100873.94;5045660;28;20620;-54
2023/06/28 18:34:26;;;;;;;4.93;2.10;;;;;;;22.23;45.19;100874.25;5041967;28;21747;-52
2023/06/28 18:36:55;;;;;;;6.45;1.85;;;;;;;22.19;45.14;100868.38;5046324;28;20619;-53
2023/06/28 18:39:23;;;;;;;6.63;1.80;;;;;;;22.19;45.65;100868.38;5032975;28;20056;-57
2023/06/28 18:41:50;;;;;;;7.85;2.05;;;;;;;22.17;45.72;100874.91;5050215;28;20056;-57
2023/06/28 18:44:18;;;;;;;4.72;2.10;;;;;;;22.10;46.38;100879.19;5045486;28;20111;-54
2023/06/28 18:46:47;;;;;;;6.85;2.53;;;;;;;22.04;46.32;100874.47;5045993;28;20083;-57
2023/06/28 18:49:16;;;;;;;5.88;2.03;;;;;;;21.99;46.12;100874.94;5041784;28;20844;-55
2023/06/28 18:51:44;;;;;;;5.20;1.83;;;;;;;21.92;46.24;100871.19;5033299;28;20513;-54
2023/06/28 18:54:13;;;;;;;6.28;2.03;;;;;;;21.89;47.72;100880.41;5044026;28;20793;-54
2023/06/28 18:56:41;;;;;;;5.80;2.22;;;;;;;21.87;46.95;100879.72;5050078;28;20128;-57
2023/06/28 18:59:09;;;;;;;6.75;2.13;;;;;;;21.84;46.75;100876.50;5045426;28;20056;-57
2023/06/28 19:01:38;;;;;;;3.28;1.63;;;;;;;21.77;46.95;100884.34;5043115;28;20084;-57
2023/06/28 19:04:06;;;;;;;5.28;1.88;;;;;;;21.73;47.06;100883.81;5042768;28;20057;-54
2023/06/28 19:06:33;;;;;;;6.53;2.25;;;;;;;21.71;47.20;100887.66;5044041;28;20102;-56
2023/06/28 19:09:00;;;;;;;5.28;2.20;;;;;;;21.68;47.69;100878.09;5046845;28;20053;-55
2023/06/28 19:11:28;;;;;;;10.55;1.83;;;;;;;21.66;49.03;100889.94;5048206;28;20064;-58
2023/06/28 19:13:55;;;;;;;8.00;2.33;;;;;;;21.63;49.39;100884.91;5047840;28;20048;-54
2023/06/28 19:16:22;;;;;;;4.68;1.77;;;;;;;21.58;49.59;100889.91;5046232;28;20458;-54
2023/06/28 19:18:50;;;;;;;3.08;1.73;;;;;;;21.51;50.46;100886.97;5045161;28;20075;-52
2023/06/28 19:21:18;;;;;;;8.05;2.33;;;;;;;21.46;50.73;100897.31;5044454;28;20067;-55
2023/06/28 19:23:45;;;;;;;9.80;2.40;;;;;;;21.41;50.83;100896.94;5042766;28;20051;-54
2023/06/28 19:26:12;;;;;;;4.70;2.40;;;;;;;21.33;50.51;100892.34;5044353;28;20079;-56
2023/06/28 19:28:39;;;;;;;5.43;2.10;;;;;;;21.28;51.01;100891.94;5039495;28;20278;-57
2023/06/28 19:31:07;;;;;;;5.85;2.10;;;;;;;21.22;51.29;100901.44;5044135;28;20060;-58
2023/06/28 19:33:34;;;;;;;7.35;2.60;;;;;;;21.16;51.02;100899.38;5043863;28;20055;-55
2023/06/28 19:36:01;;;;;;;5.25;1.83;;;;;;;21.08;51.67;100901.13;5045701;28;20060;-59
2023/06/28 19:38:29;;;;;;;7.30;2.30;;;;;;;21.01;51.97;100902.72;5045563;28;20608;-57
2023/06/28 19:40:57;;;;;;;7.05;2.20;;;;;;;20.91;52.76;100902.78;5049524;28;20049;-58
2023/06/28 19:43:24;;;;;;;6.18;2.50;;;;;;;20.83;54.43;100910.72;5032630;28;20061;-57
2023/06/28 19:45:51;;;;;;;6.72;2.65;;;;;;;20.74;54.44;100912.44;5045645;28;20514;-56
2023/06/28 19:48:18;;;;;;;5.72;2.13;;;;;;;20.65;54.70;100911.50;5045099;28;20059;-54
2023/06/28 19:50:46;;;;;;;5.45;1.70;;;;;;;20.57;55.91;100919.44;5046568;28;20057;-57
2023/06/28 19:53:13;;;;;;;8.02;2.03;;;;;;;20.47;56.35;100914.13;5046625;28;20040;-57
2023/06/28 19:55:40;;;;;;;3.70;1.95;;;;;;;20.40;57.13;100907.66;5048955;28;20143;-54
2023/06/28 19:58:07;;;;;;;9.50;2.25;;;;;;;20.33;57.87;100908.41;5048780;28;20041;-57
2023/06/28 20:00:34;;;;;;;4.80;2.15;;;;;;;20.27;57.99;100917.00;5047325;28;20505;-57
2023/06/28 20:03:03;;;;;;;6.35;2.45;;;;;;;20.19;58.15;100917.72;5047301;28;20786;-56
2023/06/28 20:05:31;;;;;;;5.80;2.35;;;;;;;20.13;58.02;100924.50;5046278;28;20053;-58
2023/06/28 20:07:58;;;;;;;4.60;2.28;;;;;;;20.07;58.50;100925.06;5049978;28;20453;-57
2023/06/28 20:10:28;;;;;;;5.20;2.50;;;;;;;20.02;58.84;100923.81;5047787;28;20111;-58
2023/06/28 20:12:55;;;;;;;5.30;2.25;;;;;;;19.95;60.02;100924.41;5049681;28;20041;-55
2023/06/28 20:15:22;;;;;;;5.15;2.90;;;;;;;19.89;60.22;100930.31;5048796;28;20409;-56
2023/06/28 20:17:50;;;;;;;6.93;2.75;;;;;;;19.87;60.19;100928.78;5046910;28;20064;-56
2023/06/28 20:20:17;;;;;;;6.20;2.58;;;;;;;19.83;60.72;100932.72;5047821;28;20116;-58
2023/06/28 20:22:44;;;;;;;7.88;2.55;;;;;;;19.79;60.72;100934.81;5046225;28;20095;-56
2023/06/28 20:25:12;;;;;;;8.93;2.97;;;;;;;19.77;61.04;100925.25;5046378;28;20124;-53
2023/06/28 20:27:39;;;;;;;5.53;2.30;;;;;;;19.73;61.54;100933.56;5050153;28;20059;-58
2023/06/28 20:30:06;;;;;;;5.50;2.70;;;;;;;19.68;61.93;100932.31;5049323;28;20391;-55
2023/06/28 20:32:34;;;;;;;8.45;3.05;;;;;;;19.61;62.46;100926.69;5041425;28;20468;-55
2023/06/28 20:35:02;;;;;;;5.68;2.97;;;;;;;19.56;62.86;100936.09;5045388;28;20466;-56
2023/06/28 20:37:29;;;;;;;6.35;2.92;;;;;;;19.51;63.38;100931.16;5050674;28;20048;-55
2023/06/28 20:39:56;;;;;;;6.57;2.78;;;;;;;19.45;65.19;100923.69;5047078;28;20513;-60
2023/06/28 20:42:25;;;;;;;5.18;2.65;;;;;;;19.39;65.85;100927.78;5053349;28;20240;-54
2023/06/28 20:44:54;;;;;;;7.95;2.70;;;;;;;19.33;67.49;100928.34;5048510;28;20397;-55
2023/06/28 20:47:24;;;;;;;9.20;3.17;;;;;;;19.28;67.90;100930.59;5040085;28;20060;-58
2023/06/28 20:49:52;;;;;;;5.00;2.63;;;;;;;19.21;68.66;100932.13;5045683;28;20045;-58
2023/06/28 20:52:19;;;;;;;6.75;3.20;;;;;;;19.14;68.86;100929.19;5045551;28;20059;-53
2023/06/28 20:54:46;;;;;;;6.07;2.35;;;;;;;19.08;68.59;100932.38;5044980;28;20056;-52
2023/06/28 20:57:14;;;;;;;6.32;3.10;;;;;;;19.01;68.71;100925.91;5048783;28;20049;-56
2023/06/28 20:59:41;;;;;;;7.55;2.88;;;;;;;18.94;69.20;100925.63;5047761;28;20525;-57
2023/06/28 21:02:08;;;;;;;7.35;2.97;;;;;;;18.88;69.90;100934.19;5041529;28;20417;-58
2023/06/28 21:04:35;;;;;;;6.50;2.78;;;;;;;18.83;70.05;100927.56;5040297;28;20053;-60
2023/06/28 21:07:03;;;;;;;4.90;2.75;;;;;;;18.76;70.25;100929.91;5045841;28;20084;-54
2023/06/28 21:09:30;;;;;;;7.75;3.38;;;;;;;18.70;70.18;100933.13;5041320;28;20044;-52
2023/06/28 21:11:58;;;;;;;8.55;3.13;;;;;;;18.65;72.14;100930.84;5050042;28;20090;-54
2023/06/28 21:14:25;;;;;;;5.13;2.83;;;;;;;18.59;71.66;100930.53;5032868;28;20509;-55
2023/06/28 21:16:53;;;;;;;5.53;2.72;;;;;;;18.52;72.05;100934.72;5048689;28;20083;-56
2023/06/28 21:19:20;;;;;;;7.78;3.22;;;;;;;18.46;73.00;100936.09;5046939;28;20135;-55
2023/06/28 21:21:47;;;;;;;7.25;3.35;;;;;;;18.40;72.63;100947.28;5045970;28;20053;-58
2023/06/28 21:24:14;;;;;;;7.70;3.92;;;;;;;18.33;72.44;100938.16;5044508;28;20120;-55
2023/06/28 21:26:42;;;;;;;8.00;2.88;;;;;;;18.27;72.99;100947.50;5053037;28;20480;-57
2023/06/28 21:29:09;;;;;;;4.93;3.10;;;;;;;18.21;71.91;100948.88;5053315;28;20517;-56
2023/06/28 21:31:36;;;;;;;8.32;3.90;;;;;;;18.19;71.50;100947.31;5047617;28;20472;-55
2023/06/28 21:34:03;;;;;;;8.05;3.40;;;;;;;18.17;72.31;100944.78;5047461;28;20204;-56
2023/06/28 21:36:35;;;;;;;11.00;3.53;;;;;;;18.14;73.00;100945.03;5045670;28;20057;-56
2023/06/28 21:39:28;;;;;;;7.90;3.95;;;;;;;18.10;72.72;100940.09;5047654;28;20055;-58
2023/06/28 21:41:55;;;;;;;7.15;4.10;;;;;;;18.04;73.38;100941.47;5048644;28;20080;-58
2023/06/28 21:44:22;;;;;;;5.93;3.97;;;;;;;18.00;75.27;100937.38;5045492;28;20136;-57
2023/06/28 21:46:50;;;;;;;8.07;4.07;;;;;;;17.93;75.28;100936.22;5048180;28;20052;-56
2023/06/28 21:49:17;;;;;;;7.13;3.30;;;;;;;17.88;76.55;100938.44;5034075;28;20056;-56
2023/06/28 21:51:44;;;;;;;5.97;3.45;;;;;;;17.83;76.48;100937.97;5047558;28;20186;-54
2023/06/28 21:54:19;;;;;;;7.20;3.70;;;;;;;17.78;76.94;100930.38;5045643;28;20117;-55
2023/06/28 21:56:46;;;;;;;7.75;4.25;;;;;;;17.74;77.38;100934.25;5047216;28;20128;-55
2023/06/28 21:59:13;;;;;;;7.35;3.58;;;;;;;17.69;77.43;100934.63;5049783;28;20045;-55
2023/06/28 22:02:30;;;;;;;8.32;3.75;;;;;;;17.64;78.71;100930.66;5038634;28;20060;-53
2023/06/28 22:05:23;;;;;;;6.30;3.67;;;;;;;17.60;78.55;100932.72;5044858;28;20513;-53
2023/06/28 22:14:25;;;;;;;11.48;4.25;;;;;;;17.48;79.21;100939.09;5049193;28;20052;-54
2023/06/28 22:17:42;;;;;;;9.80;3.83;;;;;;;17.43;79.06;100941.28;5051202;28;20139;-55
2023/06/28 22:20:38;;;;;;;8.60;4.70;;;;;;;17.39;80.66;100942.50;5046749;28;20148;-58
2023/06/28 22:26:52;;;;;;;8.40;4.60;;;;;;;17.29;80.11;100938.91;5043731;28;20497;-59
2023/06/28 22:29:22;;;;;;;7.25;4.00;;;;;;;17.25;80.32;100941.00;5033711;28;20052;-53
2023/06/28 22:35:29;;;;;;;10.32;4.72;;;;;;;17.18;81.85;100937.97;5045108;28;20035;-56
2023/06/28 22:37:57;;;;;;;9.77;4.15;;;;;;;17.14;82.53;100939.19;5047834;28;20067;-57
2023/06/28 22:40:24;;;;;;;10.27;5.30;;;;;;;17.11;82.59;100936.78;5048145;28;20062;-54
2023/06/28 22:42:51;;;;;;;9.00;4.10;;;;;;;17.07;82.66;100940.69;5061458;28;20422;-55
2023/06/28 22:45:19;;;;;;;8.02;4.38;;;;;;;17.05;83.31;100936.44;5051341;28;20167;-55
2023/06/28 22:47:46;;;;;;;11.50;4.82;;;;;;;17.01;83.60;100941.16;5047324;28;20141;-54
2023/06/28 22:50:13;;;;;;;9.00;5.00;;;;;;;16.94;83.88;100945.28;5044902;28;20141;-58
2023/06/28 22:52:43;;;;;;;7.88;4.82;;;;;;;16.89;84.40;100947.47;5045471;28;20117;-51
2023/06/28 22:55:11;;;;;;;9.25;4.57;;;;;;;16.84;84.50;100944.31;5045442;28;20049;-55
2023/06/28 22:57:38;;;;;;;8.27;4.40;;;;;;;16.83;84.05;100942.63;5047810;28;20139;-50
2023/06/28 23:00:08;;;;;;;9.00;5.18;;;;;;;16.78;84.07;100940.34;5043344;28;20170;-55
2023/06/28 23:02:36;;;;;;;10.57;4.50;;;;;;;16.78;82.54;100943.00;5027660;28;20056;-53
2023/06/28 23:05:05;;;;;;;12.73;4.82;;;;;;;16.77;82.04;100943.97;5045349;28;20064;-55
2023/06/28 23:07:33;;;;;;;7.80;4.15;;;;;;;16.79;82.19;100949.16;5048850;28;20076;-54
2023/06/28 23:10:01;;;;;;;10.68;4.35;;;;;;;16.78;82.23;100944.81;5049908;28;20140;-56
2023/06/28 23:12:31;;;;;;;9.02;3.97;;;;;;;16.78;81.54;100950.97;5050945;28;20138;-53
2023/06/28 23:15:00;;;;;;;8.77;3.85;;;;;;;16.80;81.50;100943.75;5049333;28;20091;-54
2023/06/28 23:17:29;;;;;;;5.38;3.67;;;;;;;16.78;81.40;100950.97;5050446;28;20147;-56
2023/06/28 23:19:58;;;;;;;10.25;4.70;;;;;;;16.79;82.86;100949.16;5053727;28;20140;-58
2023/06/28 23:22:27;;;;;;;7.10;4.35;;;;;;;16.75;82.25;100943.25;5050788;28;20053;-56
2023/06/28 23:24:57;;;;;;;8.85;3.95;;;;;;;16.69;82.64;100941.88;5049320;28;20160;-57
2023/06/28 23:27:25;;;;;;;8.13;4.80;;;;;;;16.69;83.82;100944.53;5053104;28;20053;-55
2023/06/28 23:29:54;;;;;;;10.10;4.55;;;;;;;16.67;84.61;100943.00;5055407;28;20040;-56
2023/06/28 23:32:21;;;;;;;8.45;4.63;;;;;;;16.65;85.12;100950.22;5049967;28;20148;-60
2023/06/28 23:34:49;;;;;;;6.93;3.70;;;;;;;16.63;85.50;100941.53;5048945;28;20051;-55
2023/06/28 23:37:16;;;;;;;10.70;4.70;;;;;;;16.60;85.86;100945.28;5048579;28;20068;-53
2023/06/28 23:39:44;;;;;;;7.10;4.50;;;;;;;16.56;86.19;100942.97;5049074;28;20069;-56
2023/06/28 23:42:14;;;;;;;11.45;4.78;;;;;;;16.53;86.52;100941.44;5033748;28;20117;-53
2023/06/28 23:44:43;;;;;;;7.38;3.90;;;;;;;16.53;86.04;100952.06;5054199;28;20048;-56
2023/06/28 23:47:10;;;;;;;11.40;4.90;;;;;;;16.50;86.95;100941.66;5032152;28;20072;-58
2023/06/28 23:49:37;;;;;;;8.10;4.47;;;;;;;16.47;86.77;100936.56;5045377;28;20045;-54
2023/06/28 23:52:05;;;;;;;14.10;4.75;;;;;;;16.43;86.88;100935.97;5046580;28;20048;-55
2023/06/28 23:54:33;;;;;;;9.13;3.53;;;;;;;16.43;86.36;100938.63;5048000;28;20480;-59
2023/06/28 23:57:03;;;;;;;10.40;4.63;;;;;;;16.42;86.45;100936.94;5050643;28;20083;-58
2023/06/28 23:59:30;;;;;;;8.32;4.30;;;;;;;16.40;86.36;100946.84;5048239;28;20370;-57
